TAF and METAR

No METAR available for Imperatriz Airport

TAF for Imperatriz Airport

TAF SBIZ 172119Z 1800/1812 10005KT 9999 SCT020 FEW025TCU TN25/1808Z TX30/1812Z BECMG 1807/1809 07010KT SCT020 RMK PHN
Report created 17. nov 22:19

between 18. nov 01:00 - 18. nov 13:00

wind 5 knots from E (100°) visibility > 10km scattered clouds (~50% cover) at 2000 feet some clouds (~25% cover) at 2500 feet of type towering cumulus Min temperature 25° expected today at around 09 o'clock